createdAt,value
2023-10-20T00:00:37.072Z,26.10
2023-10-20T00:03:22.298Z,26.08
2023-10-20T00:06:07.664Z,26.80
2023-10-20T00:08:53.275Z,24.58
2023-10-20T00:11:39.657Z,23.50
2023-10-20T00:14:24.933Z,24.83
2023-10-20T00:17:10.257Z,25.67
2023-10-20T00:19:55.544Z,23.98
2023-10-20T00:22:41.901Z,22.63
2023-10-20T00:25:27.366Z,24.73
2023-10-20T00:28:12.880Z,25.75
2023-10-20T00:30:58.289Z,24.45
2023-10-20T00:33:44.153Z,23.13
2023-10-20T00:36:29.572Z,24.60
2023-10-20T00:39:17.595Z,21.38
2023-10-20T00:42:03.463Z,22.20
2023-10-20T00:44:49.014Z,24.42
2023-10-20T00:47:37.239Z,23.23
2023-10-20T00:50:22.777Z,24.95
2023-10-20T00:53:10.290Z,23.85
2023-10-20T00:55:58.697Z,22.95
2023-10-20T00:58:44.370Z,21.87
2023-10-20T01:01:29.897Z,24.42
2023-10-20T01:04:15.689Z,23.15
2023-10-20T01:07:00.909Z,23.25
2023-10-20T01:09:47.200Z,24.63
2023-10-20T01:12:36.504Z,23.90
2023-10-20T01:15:21.975Z,23.73
2023-10-20T01:18:08.796Z,23.08
2023-10-20T01:20:54.117Z,24.20
2023-10-20T01:23:39.413Z,24.73
2023-10-20T01:26:26.021Z,19.88
2023-10-20T01:29:13.266Z,23.63
2023-10-20T01:31:58.779Z,21.30
2023-10-20T01:34:44.306Z,22.70
2023-10-20T01:37:29.607Z,22.83
2023-10-20T01:40:14.874Z,20.67
2023-10-20T01:43:00.471Z,21.17
2023-10-20T01:45:46.195Z,21.33
2023-10-20T01:48:34.465Z,20.70
2023-10-20T01:51:20.049Z,20.40
2023-10-20T01:54:05.634Z,19.30
2023-10-20T01:56:50.962Z,17.27
2023-10-20T01:59:36.577Z,14.10
2023-10-20T02:02:21.886Z,20.52
2023-10-20T02:05:11.094Z,17.10
2023-10-20T02:07:56.669Z,16.73
2023-10-20T02:10:45.640Z,15.02
2023-10-20T02:13:31.192Z,14.63
2023-10-20T02:16:16.824Z,15.35
2023-10-20T02:19:02.104Z,14.68
2023-10-20T02:21:48.510Z,14.32
2023-10-20T02:24:34.046Z,15.68
2023-10-20T02:27:20.113Z,13.73
2023-10-20T02:30:06.563Z,13.80
2023-10-20T02:32:52.079Z,13.57
2023-10-20T02:35:41.177Z,15.35
2023-10-20T02:41:13.092Z,12.50
2023-10-20T02:43:58.446Z,14.68
2023-10-20T02:46:45.052Z,12.32
2023-10-20T02:49:30.595Z,11.27
2023-10-20T02:52:15.953Z,10.63
2023-10-20T02:55:01.400Z,11.07
2023-10-20T02:57:46.485Z,10.25
2023-10-20T03:00:31.611Z,10.07
2023-10-20T03:03:18.480Z,10.13
2023-10-20T03:06:07.935Z,11.77
2023-10-20T03:08:53.520Z,10.40
2023-10-20T03:11:38.755Z,9.43
2023-10-20T03:14:24.226Z,8.45
2023-10-20T03:17:11.070Z,10.13
2023-10-20T03:19:56.690Z,11.10
2023-10-20T03:22:42.801Z,9.70
2023-10-20T03:25:28.065Z,9.77
2023-10-20T03:28:14.214Z,7.00
2023-10-20T03:31:04.049Z,10.07
2023-10-20T03:33:49.637Z,9.07
2023-10-20T03:36:35.181Z,9.75
2023-10-20T03:39:21.597Z,8.20
2023-10-20T03:42:08.322Z,11.02
2023-10-20T03:44:54.463Z,7.90
2023-10-20T03:47:40.236Z,8.85
2023-10-20T03:50:25.847Z,10.23
2023-10-20T03:53:23.442Z,7.97
2023-10-20T03:56:09.495Z,7.88
2023-10-20T03:58:54.923Z,9.13
2023-10-20T04:01:40.466Z,8.85
2023-10-20T04:04:25.764Z,7.95
2023-10-20T04:07:11.081Z,8.07
2023-10-20T04:09:56.796Z,8.65
2023-10-20T04:12:45.328Z,10.80
2023-10-20T04:15:33.903Z,7.47
2023-10-20T04:18:20.501Z,9.90
2023-10-20T04:21:06.228Z,9.50
2023-10-20T04:23:51.780Z,11.95
2023-10-20T04:26:44.371Z,9.32
2023-10-20T04:29:35.519Z,10.57
2023-10-20T04:32:39.708Z,9.75
2023-10-20T04:35:43.642Z,8.23
2023-10-20T04:38:47.401Z,11.52
2023-10-20T04:41:51.774Z,8.85
2023-10-20T04:44:49.089Z,9.85
2023-10-20T04:47:40.439Z,8.88
2023-10-20T04:50:41.163Z,9.60
2023-10-20T04:53:45.263Z,10.82
2023-10-20T04:56:49.313Z,10.60
2023-10-20T04:59:34.679Z,11.05
2023-10-20T05:02:34.946Z,11.55
2023-10-20T05:05:35.541Z,11.98
2023-10-20T05:08:24.746Z,11.35
2023-10-20T05:11:10.107Z,8.25
2023-10-20T05:13:55.588Z,9.48
2023-10-20T05:16:41.029Z,10.70
2023-10-20T05:19:26.746Z,12.13
2023-10-20T05:22:12.108Z,11.90
2023-10-20T05:24:57.603Z,11.75
2023-10-20T05:27:43.863Z,11.43
2023-10-20T05:30:29.069Z,12.60
2023-10-20T05:33:15.313Z,10.48
2023-10-20T05:36:04.447Z,13.68
2023-10-20T05:38:49.900Z,11.75
2023-10-20T05:41:35.233Z,11.63
2023-10-20T05:44:24.233Z,11.27
2023-10-20T05:47:09.789Z,14.18
2023-10-20T05:49:57.003Z,16.58
2023-10-20T05:52:42.436Z,17.80
2023-10-20T05:55:27.594Z,14.15
2023-10-20T05:58:14.138Z,13.90
2023-10-20T06:01:10.509Z,10.85
2023-10-20T06:03:56.857Z,12.00
2023-10-20T06:06:42.336Z,13.73
2023-10-20T06:09:27.649Z,12.25
2023-10-20T06:12:13.321Z,13.18
2023-10-20T06:14:58.909Z,14.02
2023-10-20T06:17:44.270Z,11.70
2023-10-20T06:20:30.046Z,13.30
2023-10-20T06:23:15.224Z,14.93
2023-10-20T06:26:00.730Z,14.52
2023-10-20T06:28:48.520Z,16.75
2023-10-20T06:31:34.241Z,15.30
2023-10-20T06:34:24.869Z,13.85
2023-10-20T06:37:10.197Z,14.25
2023-10-20T06:39:57.005Z,12.43
2023-10-20T06:42:44.374Z,14.75
2023-10-20T06:45:31.136Z,16.10
2023-10-20T06:48:17.638Z,19.35
2023-10-20T06:51:03.131Z,17.25
2023-10-20T06:53:48.627Z,17.52
2023-10-20T06:56:34.240Z,16.38
2023-10-20T06:59:21.671Z,16.55
2023-10-20T07:02:07.456Z,21.63
2023-10-20T07:04:52.682Z,17.13
2023-10-20T07:07:38.553Z,15.70
2023-10-20T07:10:23.937Z,17.10
2023-10-20T07:13:11.897Z,17.02
2023-10-20T07:15:58.812Z,16.80
2023-10-20T07:18:44.248Z,18.13
2023-10-20T07:21:30.157Z,15.90
2023-10-20T07:24:16.073Z,15.15
2023-10-20T07:27:03.035Z,25.02
2023-10-20T07:29:48.958Z,27.85
2023-10-20T07:32:35.429Z,14.57
2023-10-20T07:35:22.393Z,15.48
2023-10-20T07:38:09.212Z,14.48
2023-10-20T07:43:42.128Z,11.15
2023-10-20T07:46:27.861Z,12.32
2023-10-20T07:49:13.470Z,11.68
2023-10-20T07:52:00.005Z,13.80
2023-10-20T07:54:46.177Z,12.02
2023-10-20T07:57:31.885Z,14.40
2023-10-20T08:00:19.783Z,12.27
2023-10-20T08:03:05.789Z,12.80
2023-10-20T08:05:51.557Z,11.00
2023-10-20T08:08:37.121Z,12.73
2023-10-20T08:11:22.287Z,12.27
2023-10-20T08:14:07.588Z,15.57
2023-10-20T08:16:54.534Z,10.77
2023-10-20T08:19:45.409Z,12.18
2023-10-20T08:22:30.656Z,11.57
2023-10-20T08:25:16.484Z,11.82
2023-10-20T08:28:02.015Z,12.77
2023-10-20T08:30:47.375Z,12.70
2023-10-20T08:33:34.726Z,12.40
2023-10-20T08:36:21.704Z,12.45
2023-10-20T08:39:14.698Z,11.38
2023-10-20T08:42:01.429Z,13.35
2023-10-20T08:44:47.465Z,15.10
2023-10-20T08:47:32.911Z,13.02
2023-10-20T08:50:19.814Z,11.73
2023-10-20T08:53:05.555Z,10.88
2023-10-20T08:55:51.086Z,10.43
2023-10-20T08:58:37.329Z,14.23
2023-10-20T09:01:22.833Z,10.98
2023-10-20T09:04:08.320Z,10.65
2023-10-20T09:06:54.640Z,9.07
2023-10-20T09:09:42.032Z,10.10
2023-10-20T09:12:31.483Z,10.73
2023-10-20T09:18:03.642Z,11.10
2023-10-20T09:20:49.415Z,10.90
2023-10-20T09:23:34.822Z,11.82
2023-10-20T09:26:19.965Z,11.20
2023-10-20T09:29:09.193Z,12.00
2023-10-20T09:31:56.226Z,11.38
2023-10-20T09:34:41.481Z,11.32
2023-10-20T09:37:30.258Z,14.43
2023-10-20T09:40:16.857Z,9.75
2023-10-20T09:43:26.703Z,10.60
2023-10-20T09:46:59.958Z,11.32
2023-10-20T09:49:45.698Z,10.27
2023-10-20T09:52:31.558Z,7.65
2023-10-20T09:55:20.609Z,9.48
2023-10-20T09:58:06.146Z,9.77
2023-10-20T10:00:52.211Z,12.52
2023-10-20T10:03:44.686Z,11.45
2023-10-20T10:06:36.412Z,12.05
2023-10-20T10:09:21.839Z,10.85
2023-10-20T10:12:11.287Z,11.60
2023-10-20T10:15:02.403Z,10.20
2023-10-20T10:17:49.760Z,9.55
2023-10-20T10:20:43.786Z,8.13
2023-10-20T10:23:29.185Z,7.75
2023-10-20T10:26:15.062Z,8.80
2023-10-20T10:29:00.704Z,8.75
2023-10-20T10:31:59.295Z,8.23
2023-10-20T10:34:56.608Z,6.95
2023-10-20T10:37:42.905Z,9.60
2023-10-20T10:40:28.563Z,5.15
2023-10-20T10:43:19.152Z,7.22
2023-10-20T10:46:04.870Z,7.10
2023-10-20T10:48:51.032Z,8.77
2023-10-20T10:51:50.616Z,6.82
2023-10-20T10:54:36.725Z,7.45
2023-10-20T10:57:22.443Z,8.02
2023-10-20T11:00:08.620Z,6.43
2023-10-20T11:02:54.711Z,6.32
2023-10-20T11:05:40.673Z,11.63
2023-10-20T11:08:29.077Z,8.63
2023-10-20T11:11:16.920Z,6.22
2023-10-20T11:14:02.716Z,9.23
2023-10-20T11:16:48.972Z,7.47
2023-10-20T11:19:34.501Z,8.02
2023-10-20T11:22:19.836Z,8.82
2023-10-20T11:25:06.528Z,6.95
2023-10-20T11:27:55.476Z,8.00
2023-10-20T11:30:43.177Z,8.20
2023-10-20T11:33:28.818Z,8.20
2023-10-20T11:36:14.711Z,7.30
2023-10-20T11:39:01.324Z,7.50
2023-10-20T11:41:46.781Z,6.45
2023-10-20T11:44:32.134Z,8.60
2023-10-20T11:47:19.870Z,7.45
2023-10-20T11:50:05.465Z,6.05
2023-10-20T11:52:51.609Z,7.35
2023-10-20T11:55:37.253Z,7.05
2023-10-20T11:58:22.508Z,5.97
2023-10-20T12:01:08.050Z,6.95
2023-10-20T12:03:53.238Z,6.15
2023-10-20T12:06:38.700Z,7.90
2023-10-20T12:09:24.977Z,6.07
2023-10-20T12:12:10.605Z,4.85
2023-10-20T12:14:56.074Z,5.15
2023-10-20T12:17:42.795Z,5.10
2023-10-20T12:20:28.249Z,4.55
2023-10-20T12:23:13.891Z,5.85
2023-10-20T12:25:59.213Z,4.28
2023-10-20T12:28:44.711Z,4.15
2023-10-20T12:31:30.643Z,5.80
2023-10-20T12:34:15.849Z,6.43
2023-10-20T12:37:02.361Z,4.63
2023-10-20T12:39:47.726Z,4.53
2023-10-20T12:42:33.351Z,5.47
2023-10-20T12:45:18.828Z,4.13
2023-10-20T12:48:04.726Z,7.00
2023-10-20T12:50:51.109Z,3.83
2023-10-20T12:53:37.552Z,5.38
2023-10-20T12:56:23.241Z,2.50
2023-10-20T12:59:08.733Z,4.00
2023-10-20T13:01:54.303Z,3.78
2023-10-20T13:04:39.952Z,4.53
2023-10-20T13:07:25.280Z,3.40
2023-10-20T13:10:10.874Z,3.22
2023-10-20T13:12:56.471Z,5.50
2023-10-20T13:15:41.902Z,3.03
2023-10-20T13:18:27.851Z,8.30
2023-10-20T13:21:13.054Z,2.85
2023-10-20T13:23:58.960Z,3.75
2023-10-20T13:26:44.511Z,2.22
2023-10-20T13:29:29.895Z,2.45
2023-10-20T13:32:15.574Z,3.30
2023-10-20T13:35:01.118Z,3.72
2023-10-20T13:37:46.592Z,3.08
2023-10-20T13:40:32.416Z,2.97
2023-10-20T13:43:17.776Z,3.03
2023-10-20T13:46:03.596Z,1.45
2023-10-20T13:48:49.041Z,1.88
2023-10-20T13:51:34.697Z,2.42
2023-10-20T13:54:20.030Z,2.80
2023-10-20T13:57:05.443Z,1.83
2023-10-20T13:59:51.044Z,2.17
2023-10-20T14:02:36.739Z,1.95
2023-10-20T14:05:24.395Z,3.00
2023-10-20T14:08:09.991Z,4.15
2023-10-20T14:10:56.598Z,2.40
2023-10-20T14:13:42.064Z,3.45
2023-10-20T14:16:27.768Z,2.08
2023-10-20T14:19:13.193Z,1.77
2023-10-20T14:21:58.450Z,2.58
2023-10-20T14:24:44.071Z,2.13
2023-10-20T14:27:32.025Z,1.70
2023-10-20T14:30:17.351Z,2.55
2023-10-20T14:33:03.007Z,2.10
2023-10-20T14:35:48.335Z,2.60
2023-10-20T14:38:33.617Z,1.88
2023-10-20T14:41:18.955Z,1.90
2023-10-20T14:44:04.616Z,1.63
2023-10-20T14:46:50.038Z,2.40
2023-10-20T14:49:35.586Z,7.68
2023-10-20T14:52:21.625Z,2.00
2023-10-20T14:55:07.507Z,2.15
2023-10-20T14:57:53.309Z,3.00
2023-10-20T15:00:38.798Z,3.97
2023-10-20T15:03:24.447Z,2.78
2023-10-20T15:06:09.675Z,2.30
2023-10-20T15:08:55.102Z,1.83
2023-10-20T15:11:41.008Z,4.32
2023-10-20T15:14:26.722Z,2.75
2023-10-20T15:17:12.145Z,4.60
2023-10-20T15:19:58.053Z,1.63
2023-10-20T15:22:43.793Z,2.20
2023-10-20T15:25:29.112Z,1.45
2023-10-20T15:28:14.577Z,2.65
2023-10-20T15:31:07.073Z,2.30
2023-10-20T15:33:53.489Z,1.58
2023-10-20T15:36:48.047Z,2.42
2023-10-20T15:42:22.345Z,2.53
2023-10-20T15:45:11.432Z,2.17
2023-10-20T15:47:57.497Z,3.05
2023-10-20T15:50:45.067Z,3.72
2023-10-20T15:53:30.358Z,3.20
2023-10-20T15:56:15.648Z,2.58
2023-10-20T15:59:01.120Z,2.72
2023-10-20T16:01:47.384Z,2.80
2023-10-20T16:04:32.972Z,3.40
2023-10-20T16:07:19.545Z,3.35
2023-10-20T16:10:05.536Z,3.00
2023-10-20T16:12:50.807Z,2.95
2023-10-20T16:15:36.269Z,3.40
2023-10-20T16:18:22.038Z,2.88
2023-10-20T16:21:07.635Z,2.42
2023-10-20T16:23:53.245Z,3.72
2023-10-20T16:26:39.058Z,3.22
2023-10-20T16:29:24.528Z,2.80
2023-10-20T16:32:09.980Z,3.03
2023-10-20T16:34:55.462Z,3.13
2023-10-20T16:37:40.397Z,4.47
2023-10-20T16:40:25.678Z,3.25
2023-10-20T16:43:11.083Z,2.72
2023-10-20T16:45:56.251Z,4.88
2023-10-20T16:48:41.853Z,4.53
2023-10-20T16:51:27.768Z,3.65
2023-10-20T16:54:16.426Z,3.47
2023-10-20T16:57:02.373Z,3.88
2023-10-20T16:59:48.132Z,3.15
2023-10-20T17:02:33.578Z,3.80
2023-10-20T17:05:19.130Z,4.65
2023-10-20T17:08:04.961Z,5.05
2023-10-20T17:10:50.090Z,4.60
2023-10-20T17:13:35.485Z,3.63
2023-10-20T17:16:20.732Z,5.03
2023-10-20T17:19:05.939Z,5.38
2023-10-20T17:21:51.257Z,5.32
2023-10-20T17:24:36.198Z,5.82
2023-10-20T17:27:21.720Z,5.95
2023-10-20T17:30:07.657Z,8.13
2023-10-20T17:32:53.214Z,5.90
2023-10-20T17:35:39.360Z,8.23
2023-10-20T17:38:24.618Z,6.93
2023-10-20T17:41:10.545Z,8.77
2023-10-20T17:43:56.936Z,9.45
2023-10-20T17:46:42.340Z,9.13
2023-10-20T17:49:27.682Z,10.40
2023-10-20T17:52:12.952Z,7.05
2023-10-20T17:54:58.498Z,11.73
2023-10-20T17:57:44.399Z,8.63
2023-10-20T18:00:30.307Z,9.95
2023-10-20T18:03:17.553Z,7.35
2023-10-20T18:06:21.901Z,11.88
2023-10-20T18:09:09.359Z,10.00
2023-10-20T18:11:54.675Z,12.77
2023-10-20T18:14:40.552Z,10.25
2023-10-20T18:17:25.869Z,11.75
2023-10-20T18:20:11.107Z,9.05
2023-10-20T18:22:56.634Z,11.48
2023-10-20T18:25:42.170Z,8.40
2023-10-20T18:28:30.773Z,10.75
2023-10-20T18:31:17.675Z,7.90
2023-10-20T18:34:03.538Z,9.35
2023-10-20T18:36:48.940Z,8.77
2023-10-20T18:39:34.460Z,9.32
2023-10-20T18:42:19.967Z,7.45
2023-10-20T18:45:06.276Z,7.22
2023-10-20T18:47:51.562Z,6.28
2023-10-20T18:50:37.076Z,10.18
2023-10-20T18:53:22.342Z,6.97
2023-10-20T18:56:08.641Z,6.55
2023-10-20T18:58:53.778Z,9.40
2023-10-20T19:01:38.998Z,10.20
2023-10-20T19:04:24.212Z,7.35
2023-10-20T19:07:11.658Z,7.05
2023-10-20T19:09:57.656Z,7.75
2023-10-20T19:12:43.218Z,9.18
2023-10-20T19:15:28.940Z,8.73
2023-10-20T19:18:14.460Z,8.85
2023-10-20T19:21:01.217Z,9.32
2023-10-20T19:23:46.578Z,8.93
2023-10-20T19:26:32.013Z,8.75
2023-10-20T19:29:17.217Z,8.35
2023-10-20T19:32:04.109Z,10.02
2023-10-20T19:34:49.620Z,8.23
2023-10-20T19:37:37.679Z,10.65
2023-10-20T19:40:23.199Z,10.65
2023-10-20T19:43:08.553Z,9.10
2023-10-20T19:45:54.121Z,9.65
